sensor_id;sensor_type;location;lat;lon;timestamp;P1;durP1;ratioP1;P2;durP2;ratioP2
69795;SDS011;57073;45.650;9.612;2022-12-07T00:07:59;12.65;;;6.55;;
69795;SDS011;57073;45.650;9.612;2022-12-07T00:17:59;10.57;;;6.00;;
69795;SDS011;57073;45.650;9.612;2022-12-07T00:28:00;9.70;;;5.00;;
69795;SDS011;57073;45.650;9.612;2022-12-07T00:38:00;7.63;;;4.20;;
69795;SDS011;57073;45.650;9.612;2022-12-07T00:48:00;8.05;;;4.10;;
69795;SDS011;57073;45.650;9.612;2022-12-07T00:58:01;7.77;;;3.83;;
69795;SDS011;57073;45.650;9.612;2022-12-07T01:08:02;8.70;;;3.80;;
69795;SDS011;57073;45.650;9.612;2022-12-07T01:18:02;8.20;;;4.03;;
69795;SDS011;57073;45.650;9.612;2022-12-07T01:28:03;6.80;;;3.87;;
69795;SDS011;57073;45.650;9.612;2022-12-07T01:38:04;7.75;;;3.95;;
69795;SDS011;57073;45.650;9.612;2022-12-07T01:48:04;8.20;;;3.80;;
69795;SDS011;57073;45.650;9.612;2022-12-07T01:58:07;8.07;;;4.50;;
69795;SDS011;57073;45.650;9.612;2022-12-07T02:08:09;8.43;;;4.10;;
69795;SDS011;57073;45.650;9.612;2022-12-07T02:18:16;7.53;;;3.60;;
69795;SDS011;57073;45.650;9.612;2022-12-07T02:28:47;6.97;;;3.50;;
69795;SDS011;57073;45.650;9.612;2022-12-07T02:49:03;6.40;;;2.70;;
69795;SDS011;57073;45.650;9.612;2022-12-07T03:09:33;5.50;;;3.00;;
69795;SDS011;57073;45.650;9.612;2022-12-07T03:19:42;6.83;;;2.97;;
69795;SDS011;57073;45.650;9.612;2022-12-07T03:30:27;4.82;;;2.40;;
69795;SDS011;57073;45.650;9.612;2022-12-07T03:40:13;4.87;;;2.70;;
69795;SDS011;57073;45.650;9.612;2022-12-07T04:00:21;5.47;;;2.42;;
69795;SDS011;57073;45.650;9.612;2022-12-07T04:10:22;6.05;;;2.90;;
69795;SDS011;57073;45.650;9.612;2022-12-07T04:20:22;3.87;;;2.10;;
69795;SDS011;57073;45.650;9.612;2022-12-07T04:30:22;3.85;;;2.42;;
69795;SDS011;57073;45.650;9.612;2022-12-07T04:40:23;5.93;;;2.40;;
69795;SDS011;57073;45.650;9.612;2022-12-07T04:50:23;4.15;;;2.30;;
69795;SDS011;57073;45.650;9.612;2022-12-07T05:00:24;5.37;;;2.40;;
69795;SDS011;57073;45.650;9.612;2022-12-07T05:10:24;6.70;;;2.60;;
69795;SDS011;57073;45.650;9.612;2022-12-07T05:20:24;5.45;;;2.22;;
69795;SDS011;57073;45.650;9.612;2022-12-07T05:30:25;5.07;;;2.40;;
69795;SDS011;57073;45.650;9.612;2022-12-07T05:40:27;5.45;;;2.40;;
69795;SDS011;57073;45.650;9.612;2022-12-07T05:50:28;4.97;;;2.50;;
69795;SDS011;57073;45.650;9.612;2022-12-07T06:00:28;4.70;;;2.35;;
69795;SDS011;57073;45.650;9.612;2022-12-07T06:10:29;3.75;;;2.05;;
69795;SDS011;57073;45.650;9.612;2022-12-07T06:20:29;4.30;;;2.10;;
69795;SDS011;57073;45.650;9.612;2022-12-07T06:30:30;4.40;;;1.73;;
69795;SDS011;57073;45.650;9.612;2022-12-07T06:40:30;6.72;;;2.28;;
69795;SDS011;57073;45.650;9.612;2022-12-07T06:50:30;6.00;;;1.88;;
69795;SDS011;57073;45.650;9.612;2022-12-07T07:00:31;5.40;;;2.08;;
69795;SDS011;57073;45.650;9.612;2022-12-07T07:10:31;6.60;;;1.83;;
69795;SDS011;57073;45.650;9.612;2022-12-07T07:20:31;4.07;;;1.85;;
69795;SDS011;57073;45.650;9.612;2022-12-07T07:30:32;5.47;;;2.77;;
69795;SDS011;57073;45.650;9.612;2022-12-07T07:40:32;9.65;;;3.80;;
69795;SDS011;57073;45.650;9.612;2022-12-07T07:50:32;6.40;;;3.67;;
69795;SDS011;57073;45.650;9.612;2022-12-07T08:00:33;7.47;;;3.83;;
69795;SDS011;57073;45.650;9.612;2022-12-07T08:10:33;7.03;;;3.78;;
69795;SDS011;57073;45.650;9.612;2022-12-07T08:20:35;7.93;;;4.30;;
69795;SDS011;57073;45.650;9.612;2022-12-07T08:30:36;5.45;;;3.13;;
69795;SDS011;57073;45.650;9.612;2022-12-07T08:40:37;6.30;;;2.92;;
69795;SDS011;57073;45.650;9.612;2022-12-07T08:50:37;5.93;;;3.23;;
69795;SDS011;57073;45.650;9.612;2022-12-07T09:00:38;9.30;;;3.40;;
69795;SDS011;57073;45.650;9.612;2022-12-07T09:10:38;6.15;;;3.70;;
69795;SDS011;57073;45.650;9.612;2022-12-07T09:20:39;9.48;;;3.92;;
69795;SDS011;57073;45.650;9.612;2022-12-07T09:30:44;5.20;;;3.13;;
69795;SDS011;57073;45.650;9.612;2022-12-07T09:40:47;5.50;;;3.17;;
69795;SDS011;57073;45.650;9.612;2022-12-07T09:50:48;7.40;;;3.47;;
69795;SDS011;57073;45.650;9.612;2022-12-07T10:00:50;8.02;;;3.55;;
69795;SDS011;57073;45.650;9.612;2022-12-07T10:10:56;6.53;;;3.60;;
69795;SDS011;57073;45.650;9.612;2022-12-07T10:21:00;6.77;;;3.47;;
69795;SDS011;57073;45.650;9.612;2022-12-07T10:31:03;6.68;;;3.90;;
69795;SDS011;57073;45.650;9.612;2022-12-07T10:41:16;10.37;;;6.00;;
69795;SDS011;57073;45.650;9.612;2022-12-07T11:01:33;12.57;;;6.60;;
69795;SDS011;57073;45.650;9.612;2022-12-07T11:12:01;12.88;;;6.20;;
69795;SDS011;57073;45.650;9.612;2022-12-07T11:22:14;23.97;;;10.80;;
69795;SDS011;57073;45.650;9.612;2022-12-07T11:42:52;25.37;;;15.43;;
69795;SDS011;57073;45.650;9.612;2022-12-07T11:53:02;26.77;;;16.70;;
69795;SDS011;57073;45.650;9.612;2022-12-07T12:03:15;29.50;;;17.05;;
69795;SDS011;57073;45.650;9.612;2022-12-07T12:24:08;34.57;;;20.80;;
69795;SDS011;57073;45.650;9.612;2022-12-07T12:55:17;43.27;;;25.10;;
69795;SDS011;57073;45.650;9.612;2022-12-07T13:05:25;41.80;;;25.83;;
69795;SDS011;57073;45.650;9.612;2022-12-07T13:15:31;46.53;;;26.50;;
69795;SDS011;57073;45.650;9.612;2022-12-07T13:25:35;46.43;;;25.37;;
69795;SDS011;57073;45.650;9.612;2022-12-07T13:35:44;42.10;;;24.60;;
69795;SDS011;57073;45.650;9.612;2022-12-07T13:45:45;40.63;;;22.83;;
69795;SDS011;57073;45.650;9.612;2022-12-07T13:55:56;41.40;;;22.25;;
69795;SDS011;57073;45.650;9.612;2022-12-07T14:16:54;41.97;;;22.70;;
69795;SDS011;57073;45.650;9.612;2022-12-07T14:26:43;48.35;;;26.00;;
69795;SDS011;57073;45.650;9.612;2022-12-07T14:36:46;49.17;;;26.43;;
69795;SDS011;57073;45.650;9.612;2022-12-07T14:46:47;55.03;;;29.80;;
69795;SDS011;57073;45.650;9.612;2022-12-07T14:56:48;59.67;;;30.33;;
69795;SDS011;57073;45.650;9.612;2022-12-07T15:06:56;61.07;;;31.30;;
69795;SDS011;57073;45.650;9.612;2022-12-07T15:17:00;77.20;;;35.63;;
69795;SDS011;57073;45.650;9.612;2022-12-07T15:27:01;88.77;;;34.30;;
69795;SDS011;57073;45.650;9.612;2022-12-07T15:37:01;107.28;;;40.53;;
69795;SDS011;57073;45.650;9.612;2022-12-07T15:47:01;100.80;;;39.27;;
69795;SDS011;57073;45.650;9.612;2022-12-07T15:57:03;92.15;;;35.95;;
69795;SDS011;57073;45.650;9.612;2022-12-07T16:07:04;78.77;;;34.70;;
69795;SDS011;57073;45.650;9.612;2022-12-07T16:17:04;75.17;;;32.67;;
69795;SDS011;57073;45.650;9.612;2022-12-07T16:27:05;82.85;;;34.42;;
69795;SDS011;57073;45.650;9.612;2022-12-07T16:37:06;83.03;;;35.60;;
69795;SDS011;57073;45.650;9.612;2022-12-07T16:47:06;78.13;;;34.60;;
69795;SDS011;57073;45.650;9.612;2022-12-07T16:57:07;77.60;;;35.30;;
69795;SDS011;57073;45.650;9.612;2022-12-07T17:07:07;80.60;;;34.63;;
69795;SDS011;57073;45.650;9.612;2022-12-07T17:17:08;105.33;;;39.07;;
69795;SDS011;57073;45.650;9.612;2022-12-07T17:27:08;80.25;;;34.55;;
69795;SDS011;57073;45.650;9.612;2022-12-07T17:37:08;75.13;;;36.95;;
69795;SDS011;57073;45.650;9.612;2022-12-07T17:47:09;65.13;;;32.17;;
69795;SDS011;57073;45.650;9.612;2022-12-07T17:57:10;68.13;;;33.07;;
69795;SDS011;57073;45.650;9.612;2022-12-07T18:07:10;79.72;;;41.75;;
69795;SDS011;57073;45.650;9.612;2022-12-07T18:17:11;78.35;;;39.10;;
69795;SDS011;57073;45.650;9.612;2022-12-07T18:27:11;98.20;;;47.00;;
69795;SDS011;57073;45.650;9.612;2022-12-07T18:37:11;103.93;;;48.22;;
69795;SDS011;57073;45.650;9.612;2022-12-07T18:47:12;83.15;;;39.38;;
69795;SDS011;57073;45.650;9.612;2022-12-07T18:57:12;82.80;;;38.93;;
69795;SDS011;57073;45.650;9.612;2022-12-07T19:07:12;80.00;;;39.77;;
69795;SDS011;57073;45.650;9.612;2022-12-07T19:17:13;69.78;;;34.78;;
69795;SDS011;57073;45.650;9.612;2022-12-07T19:27:13;59.20;;;31.65;;
69795;SDS011;57073;45.650;9.612;2022-12-07T19:37:14;63.53;;;31.88;;
69795;SDS011;57073;45.650;9.612;2022-12-07T19:47:15;55.03;;;30.58;;
69795;SDS011;57073;45.650;9.612;2022-12-07T19:57:16;51.03;;;28.93;;
69795;SDS011;57073;45.650;9.612;2022-12-07T20:07:17;49.17;;;27.13;;
69795;SDS011;57073;45.650;9.612;2022-12-07T20:17:17;46.92;;;25.83;;
69795;SDS011;57073;45.650;9.612;2022-12-07T20:27:17;46.90;;;24.02;;
69795;SDS011;57073;45.650;9.612;2022-12-07T20:37:18;47.17;;;25.33;;
69795;SDS011;57073;45.650;9.612;2022-12-07T20:47:18;51.15;;;26.90;;
69795;SDS011;57073;45.650;9.612;2022-12-07T20:57:19;45.13;;;25.15;;
69795;SDS011;57073;45.650;9.612;2022-12-07T21:07:19;48.00;;;25.20;;
69795;SDS011;57073;45.650;9.612;2022-12-07T21:17:19;48.80;;;25.07;;
69795;SDS011;57073;45.650;9.612;2022-12-07T21:27:20;39.28;;;20.15;;
69795;SDS011;57073;45.650;9.612;2022-12-07T21:37:20;38.25;;;20.55;;
69795;SDS011;57073;45.650;9.612;2022-12-07T21:47:20;35.53;;;19.67;;
69795;SDS011;57073;45.650;9.612;2022-12-07T21:57:21;37.20;;;18.03;;
69795;SDS011;57073;45.650;9.612;2022-12-07T22:07:21;35.10;;;18.88;;
69795;SDS011;57073;45.650;9.612;2022-12-07T22:17:21;38.63;;;20.13;;
69795;SDS011;57073;45.650;9.612;2022-12-07T22:27:22;32.20;;;19.07;;
69795;SDS011;57073;45.650;9.612;2022-12-07T22:37:22;34.30;;;18.67;;
69795;SDS011;57073;45.650;9.612;2022-12-07T22:47:22;33.72;;;18.10;;
69795;SDS011;57073;45.650;9.612;2022-12-07T22:57:23;35.08;;;18.30;;
69795;SDS011;57073;45.650;9.612;2022-12-07T23:07:23;31.40;;;16.43;;
69795;SDS011;57073;45.650;9.612;2022-12-07T23:17:23;37.25;;;17.73;;
69795;SDS011;57073;45.650;9.612;2022-12-07T23:27:24;42.33;;;21.40;;
69795;SDS011;57073;45.650;9.612;2022-12-07T23:37:24;47.53;;;25.37;;
69795;SDS011;57073;45.650;9.612;2022-12-07T23:47:25;44.97;;;24.27;;
69795;SDS011;57073;45.650;9.612;2022-12-07T23:57:25;44.53;;;24.30;;
